Weather at Huntsville Regional Airport

Public forecast

Using degrees Fahrenheit for public forecast. Weather courtesy of forecast.io.

Current aviation weather report (METAR) for Huntsville Regional Airport

Retrieved 2020/09/20 18:53 UTC (57 minutes ago):

KUTS 201853Z AUTO 04007KT 350V060 10SM OVC038 27/17 A3001 RMK AO2 SLP159 T02720172

Aviation forecast (TAF) for Huntsville Regional Airport

Retrieved 2020/09/20 18:48 UTC (1 hour ago):

TAF KUTS 201747Z 2018/2118 01012KT P6SM SCT050 FM201900 02010G18KT 5SM -SHRA BR SCT015 BKN025 FM210300 03009G16KT 6SM -SHRA BR SCT007 OVC015 FM211200 04012G22KT 4SM -RA BR BKN007 OVC015